createdAt,value
2022-11-01T00:00:13.003Z,21.24
2022-11-01T00:02:28.005Z,21.35
2022-11-01T00:03:30.090Z,21.24
2022-11-01T00:04:32.083Z,21.25
2022-11-01T00:05:34.226Z,21.25
2022-11-01T00:06:36.604Z,21.24
2022-11-01T00:07:39.583Z,21.24
2022-11-01T00:08:43.759Z,21.23
2022-11-01T00:09:47.121Z,21.24
2022-11-01T00:10:50.101Z,21.23
2022-11-01T00:11:52.390Z,21.24
2022-11-01T00:12:55.385Z,21.24
2022-11-01T00:13:58.093Z,21.24
2022-11-01T00:15:00.389Z,21.24
2022-11-01T00:16:02.738Z,21.24
2022-11-01T00:17:05.446Z,21.23
2022-11-01T00:18:08.208Z,21.23
2022-11-01T00:19:10.659Z,21.23
2022-11-01T00:20:14.411Z,21.23
2022-11-01T00:21:17.000Z,21.24
2022-11-01T00:22:19.095Z,21.24
2022-11-01T00:23:21.695Z,21.23
2022-11-01T00:24:23.684Z,21.23
2022-11-01T00:25:26.227Z,21.22
2022-11-01T00:26:28.484Z,21.22
2022-11-01T00:27:30.561Z,21.22
2022-11-01T00:28:33.074Z,21.22
2022-11-01T00:29:35.729Z,21.22
2022-11-01T00:30:38.637Z,21.22
2022-11-01T00:31:41.873Z,21.22
2022-11-01T00:32:44.007Z,21.21
2022-11-01T00:33:46.278Z,21.23
2022-11-01T00:34:48.367Z,21.22
2022-11-01T00:35:51.625Z,21.23
2022-11-01T00:36:53.893Z,21.22
2022-11-01T00:37:55.990Z,21.22
2022-11-01T00:38:58.404Z,21.21
2022-11-01T00:40:00.573Z,21.21
2022-11-01T00:41:04.656Z,21.21
2022-11-01T00:42:07.194Z,21.21
2022-11-01T00:43:10.695Z,21.21
2022-11-01T00:44:13.403Z,21.21
2022-11-01T00:45:15.927Z,21.21
2022-11-01T00:46:20.219Z,21.21
2022-11-01T00:47:23.341Z,21.20
2022-11-01T00:48:25.689Z,21.21
2022-11-01T00:49:28.455Z,21.19
2022-11-01T00:50:31.270Z,21.21
2022-11-01T00:51:33.395Z,21.19
2022-11-01T00:52:36.372Z,21.20
2022-11-01T00:53:38.550Z,21.19
2022-11-01T00:54:41.450Z,21.19
2022-11-01T00:55:43.557Z,21.19
2022-11-01T00:56:45.744Z,21.18
2022-11-01T00:57:47.930Z,21.18
2022-11-01T00:58:50.963Z,21.18
2022-11-01T01:00:55.515Z,21.19
2022-11-01T01:01:57.746Z,21.20
2022-11-01T01:03:01.223Z,21.18
2022-11-01T01:04:05.698Z,21.18
2022-11-01T01:05:09.428Z,21.17
2022-11-01T01:06:12.728Z,21.18
2022-11-01T01:07:14.827Z,21.18
2022-11-01T01:08:17.038Z,21.18
2022-11-01T01:09:19.149Z,21.18
2022-11-01T01:10:22.359Z,21.17
2022-11-01T01:11:24.486Z,21.17
2022-11-01T01:12:26.906Z,21.18
2022-11-01T01:13:28.934Z,21.17
2022-11-01T01:14:32.460Z,21.16
2022-11-01T01:15:34.995Z,21.17
2022-11-01T01:16:37.213Z,21.17
2022-11-01T01:17:40.316Z,21.16
2022-11-01T01:18:42.581Z,21.16
2022-11-01T01:19:44.767Z,21.17
2022-11-01T01:20:47.074Z,21.18
2022-11-01T01:21:49.157Z,21.17
2022-11-01T01:22:51.244Z,21.17
2022-11-01T01:23:53.257Z,21.17
2022-11-01T01:24:55.809Z,21.18
2022-11-01T01:25:58.008Z,21.17
2022-11-01T01:27:00.854Z,21.16
2022-11-01T01:28:04.912Z,21.17
2022-11-01T01:29:08.158Z,21.17
2022-11-01T01:30:11.478Z,21.16
2022-11-01T01:31:13.456Z,21.16
2022-11-01T01:32:18.556Z,21.14
2022-11-01T01:33:20.569Z,21.15
2022-11-01T01:34:22.675Z,21.14
2022-11-01T01:35:24.766Z,21.14
2022-11-01T01:36:26.961Z,21.15
2022-11-01T01:37:29.062Z,21.14
2022-11-01T01:38:31.364Z,21.14
2022-11-01T01:39:34.077Z,21.14
2022-11-01T01:40:36.327Z,21.13
2022-11-01T01:41:38.428Z,21.13
2022-11-01T01:42:41.810Z,21.14
2022-11-01T01:43:45.795Z,21.14
2022-11-01T01:44:54.380Z,21.14
2022-11-01T01:45:57.923Z,21.14
2022-11-01T01:47:01.337Z,21.14
2022-11-01T01:48:20.942Z,21.14
2022-11-01T01:49:25.324Z,21.13
2022-11-01T01:50:34.422Z,21.13
2022-11-01T01:51:36.581Z,21.13
2022-11-01T01:53:00.536Z,21.13
2022-11-01T01:54:03.249Z,21.12
2022-11-01T01:55:07.919Z,21.11
2022-11-01T01:57:25.886Z,21.20
2022-11-01T02:00:03.784Z,21.20
2022-11-01T02:01:07.989Z,21.09
2022-11-01T02:02:11.128Z,21.08
2022-11-01T02:03:13.892Z,21.08
2022-11-01T02:04:25.544Z,21.08
2022-11-01T02:06:42.507Z,21.19
2022-11-01T02:07:44.883Z,21.08
2022-11-01T02:08:49.870Z,21.09
2022-11-01T02:09:52.335Z,21.08
2022-11-01T02:11:00.249Z,21.08
2022-11-01T02:12:02.862Z,21.09
2022-11-01T02:13:13.014Z,21.09
2022-11-01T02:14:16.325Z,21.10
2022-11-01T02:15:18.886Z,21.09
2022-11-01T02:16:37.246Z,21.10
2022-11-01T02:19:45.838Z,21.20
2022-11-01T02:21:25.745Z,21.09
2022-11-01T02:22:38.637Z,21.08
2022-11-01T02:24:00.767Z,21.07
2022-11-01T02:25:31.019Z,21.05
2022-11-01T02:26:59.961Z,21.03
2022-11-01T02:28:15.041Z,21.01
2022-11-01T02:29:36.233Z,20.98
2022-11-01T02:30:52.877Z,20.98
2022-11-01T02:31:58.902Z,20.96
2022-11-01T02:33:14.380Z,20.96
2022-11-01T02:34:19.707Z,20.91
2022-11-01T02:35:25.615Z,20.93
2022-11-01T02:36:31.641Z,20.94
2022-11-01T02:37:37.544Z,20.94
2022-11-01T02:40:11.691Z,21.06
2022-11-01T02:41:34.095Z,20.95
2022-11-01T02:42:38.796Z,20.97
2022-11-01T02:43:59.574Z,20.96
2022-11-01T02:45:14.672Z,20.96
2022-11-01T02:46:18.057Z,20.97
2022-11-01T02:47:21.195Z,20.96
2022-11-01T02:48:23.248Z,20.97
2022-11-01T02:50:44.820Z,21.07
2022-11-01T02:51:47.693Z,20.97
2022-11-01T02:52:49.764Z,20.97
2022-11-01T02:53:51.844Z,20.98
2022-11-01T02:55:01.082Z,21.00
2022-11-01T02:56:03.213Z,21.00
2022-11-01T02:57:32.090Z,21.01
2022-11-01T02:58:34.217Z,21.01
2022-11-01T02:59:44.269Z,21.02
2022-11-01T03:00:46.570Z,21.01
2022-11-01T03:03:19.318Z,21.12
2022-11-01T03:04:21.377Z,21.02
2022-11-01T03:05:31.946Z,21.02
2022-11-01T03:06:38.188Z,21.01
2022-11-01T03:07:42.051Z,21.00
2022-11-01T03:08:45.969Z,21.01
2022-11-01T03:09:48.491Z,21.01
2022-11-01T03:10:54.477Z,21.01
2022-11-01T03:13:40.968Z,21.13
2022-11-01T03:14:46.840Z,21.02
2022-11-01T03:15:52.764Z,21.03
2022-11-01T03:18:28.389Z,21.13
2022-11-01T03:19:43.100Z,21.02
2022-11-01T03:20:51.573Z,21.03
2022-11-01T03:22:12.074Z,21.02
2022-11-01T03:24:38.559Z,21.13
2022-11-01T03:25:44.408Z,21.02
2022-11-01T03:26:49.489Z,21.02
2022-11-01T03:27:52.986Z,21.02
2022-11-01T03:28:58.238Z,21.01
2022-11-01T03:30:06.001Z,21.02
2022-11-01T03:31:17.381Z,21.01
2022-11-01T03:32:20.651Z,21.02
2022-11-01T03:33:24.394Z,21.02
2022-11-01T03:34:27.845Z,21.02
2022-11-01T03:35:36.589Z,21.02
2022-11-01T03:36:40.937Z,21.03
2022-11-01T03:37:43.642Z,21.03
2022-11-01T03:38:55.504Z,21.03
2022-11-01T03:39:57.560Z,21.04
2022-11-01T03:41:04.054Z,21.04
2022-11-01T03:42:08.658Z,21.04
2022-11-01T03:43:12.253Z,21.05
2022-11-01T03:44:14.475Z,21.05
2022-11-01T03:45:18.695Z,21.06
2022-11-01T03:46:21.117Z,21.05
2022-11-01T03:47:23.722Z,21.05
2022-11-01T03:48:26.526Z,21.06
2022-11-01T03:49:28.509Z,21.05
2022-11-01T03:50:31.116Z,21.06
2022-11-01T03:51:33.111Z,21.07
2022-11-01T03:52:36.184Z,21.07
2022-11-01T03:53:38.874Z,21.08
2022-11-01T03:54:41.438Z,21.09
2022-11-01T03:55:45.998Z,21.10
2022-11-01T03:56:48.691Z,21.11
2022-11-01T03:59:05.620Z,21.24
2022-11-01T04:00:10.821Z,21.14
2022-11-01T04:01:16.570Z,21.15
2022-11-01T04:02:18.933Z,21.16
2022-11-01T04:03:21.970Z,21.18
2022-11-01T04:04:24.539Z,21.17
2022-11-01T04:05:28.061Z,21.18
2022-11-01T04:06:31.497Z,21.19
2022-11-01T04:07:34.386Z,21.20
2022-11-01T04:08:36.858Z,21.20
2022-11-01T04:09:38.954Z,21.21
2022-11-01T04:10:41.670Z,21.21
2022-11-01T04:11:43.667Z,21.22
2022-11-01T04:12:46.552Z,21.22
2022-11-01T04:13:48.663Z,21.24
2022-11-01T04:14:51.133Z,21.24
2022-11-01T04:15:53.300Z,21.24
2022-11-01T04:16:55.470Z,21.24
2022-11-01T04:18:16.885Z,21.25
2022-11-01T04:19:19.711Z,21.25
2022-11-01T04:20:22.913Z,21.25
2022-11-01T04:21:25.338Z,21.25
2022-11-01T04:22:28.494Z,21.25
2022-11-01T04:23:31.877Z,21.26
2022-11-01T04:24:34.631Z,21.26
2022-11-01T04:25:36.736Z,21.25
2022-11-01T04:26:38.921Z,21.27
2022-11-01T04:27:41.815Z,21.25
2022-11-01T04:28:44.899Z,21.25
2022-11-01T04:29:47.745Z,21.26
2022-11-01T04:30:49.927Z,21.26
2022-11-01T04:31:52.639Z,21.26
2022-11-01T04:32:54.738Z,21.26
2022-11-01T04:33:57.242Z,21.26
2022-11-01T04:34:59.251Z,21.26
2022-11-01T04:36:05.936Z,21.27
2022-11-01T04:37:08.250Z,21.26
2022-11-01T04:38:10.872Z,21.26
2022-11-01T04:39:13.500Z,21.26
2022-11-01T04:40:15.991Z,21.26
2022-11-01T04:41:18.702Z,21.26
2022-11-01T04:42:20.781Z,21.24
2022-11-01T04:43:22.940Z,21.24
2022-11-01T04:44:26.058Z,21.24
2022-11-01T04:45:28.099Z,21.24
2022-11-01T04:46:30.288Z,21.24
2022-11-01T04:47:33.366Z,21.23
2022-11-01T04:48:35.375Z,21.24
2022-11-01T04:49:37.352Z,21.24
2022-11-01T04:50:40.366Z,21.23
2022-11-01T04:51:42.532Z,21.24
2022-11-01T04:52:45.164Z,21.23
2022-11-01T04:53:47.723Z,21.22
2022-11-01T04:54:49.799Z,21.22
2022-11-01T04:55:52.669Z,21.22
2022-11-01T04:56:55.312Z,21.23
2022-11-01T04:57:58.397Z,21.22
2022-11-01T04:59:01.754Z,21.22
2022-11-01T05:00:05.298Z,21.22
2022-11-01T05:01:07.746Z,21.22
2022-11-01T05:02:10.334Z,21.22
2022-11-01T05:03:12.576Z,21.22
2022-11-01T05:04:15.381Z,21.22
2022-11-01T05:05:17.707Z,21.22
2022-11-01T05:06:20.540Z,21.21
2022-11-01T05:07:22.690Z,21.22
2022-11-01T05:08:26.179Z,21.21
2022-11-01T05:09:41.827Z,21.22
2022-11-01T05:10:44.074Z,21.21
2022-11-01T05:11:47.234Z,21.20
2022-11-01T05:12:49.363Z,21.20
2022-11-01T05:13:52.403Z,21.19
2022-11-01T05:14:56.786Z,21.20
2022-11-01T05:16:18.911Z,21.19
2022-11-01T05:17:08.129Z,21.21
2022-11-01T05:18:10.301Z,21.19
2022-11-01T05:19:12.413Z,21.19
2022-11-01T05:20:14.483Z,21.18
2022-11-01T05:21:17.598Z,21.20
2022-11-01T05:22:20.833Z,21.19
2022-11-01T05:23:22.877Z,21.18
2022-11-01T05:24:25.647Z,21.19
2022-11-01T05:25:28.085Z,21.19
2022-11-01T05:26:30.294Z,21.19
2022-11-01T05:27:32.431Z,21.19
2022-11-01T05:28:34.413Z,21.18
2022-11-01T05:29:36.401Z,21.19
2022-11-01T05:30:38.779Z,21.20
2022-11-01T05:31:41.842Z,21.18
2022-11-01T05:32:43.994Z,21.18
2022-11-01T05:33:46.068Z,21.18
2022-11-01T05:34:48.321Z,21.19
2022-11-01T05:35:50.400Z,21.18
2022-11-01T05:36:55.187Z,21.18
2022-11-01T05:37:57.457Z,21.18
2022-11-01T05:38:59.567Z,21.19
2022-11-01T05:40:03.165Z,21.18
2022-11-01T05:41:06.071Z,21.19
2022-11-01T05:42:08.482Z,21.19
2022-11-01T05:43:10.992Z,21.18
2022-11-01T05:44:12.984Z,21.19
2022-11-01T05:45:15.474Z,21.20
2022-11-01T05:46:18.010Z,21.20
2022-11-01T05:47:20.118Z,21.21
2022-11-01T05:48:22.187Z,21.22
2022-11-01T05:49:24.580Z,21.22
2022-11-01T05:50:27.826Z,21.23
2022-11-01T05:51:29.959Z,21.23
2022-11-01T05:52:32.075Z,21.23
2022-11-01T05:53:35.268Z,21.23
2022-11-01T05:54:37.233Z,21.22
2022-11-01T05:55:39.220Z,21.23
2022-11-01T05:56:44.336Z,21.23
2022-11-01T05:58:51.808Z,21.22
2022-11-01T05:59:53.952Z,21.23
2022-11-01T06:01:00.230Z,21.23
2022-11-01T06:02:02.491Z,21.22
2022-11-01T06:03:07.014Z,21.22
2022-11-01T06:04:09.354Z,21.23
2022-11-01T06:05:11.353Z,21.22
2022-11-01T06:06:14.214Z,21.23
2022-11-01T06:07:16.391Z,21.23
2022-11-01T06:08:18.675Z,21.23
2022-11-01T06:09:21.278Z,21.24
2022-11-01T06:10:23.463Z,21.26
2022-11-01T06:11:26.556Z,21.26
2022-11-01T06:12:29.025Z,21.26
2022-11-01T06:13:31.621Z,21.27
2022-11-01T06:15:38.885Z,21.30
2022-11-01T06:16:40.873Z,21.29
2022-11-01T06:17:43.345Z,21.29
2022-11-01T06:18:46.273Z,21.30
2022-11-01T06:19:48.677Z,21.29
2022-11-01T06:20:51.514Z,21.31
2022-11-01T06:21:53.515Z,21.31
2022-11-01T06:22:56.356Z,21.32
2022-11-01T06:23:58.535Z,21.31
2022-11-01T06:25:00.634Z,21.31
2022-11-01T06:26:03.362Z,21.32
2022-11-01T06:27:09.949Z,21.33
2022-11-01T06:28:10.286Z,21.33
2022-11-01T06:29:13.227Z,21.34
2022-11-01T06:30:15.677Z,21.34
2022-11-01T06:31:18.508Z,21.34
2022-11-01T06:32:21.368Z,21.34
2022-11-01T06:33:23.378Z,21.35
2022-11-01T06:34:25.490Z,21.36
2022-11-01T11:09:46.751Z,18.27
2022-11-01T11:10:49.348Z,18.19
2022-11-01T11:13:06.978Z,18.46
2022-11-01T11:14:09.390Z,18.43
2022-11-01T11:15:18.477Z,18.55
2022-11-01T11:17:38.743Z,18.92
2022-11-01T11:18:40.815Z,19.05
2022-11-01T11:19:42.987Z,19.05
2022-11-01T11:20:50.518Z,19.15
2022-11-01T11:21:53.576Z,19.26
2022-11-01T11:22:56.565Z,19.39
2022-11-01T11:23:58.763Z,19.49
2022-11-01T11:25:01.181Z,19.59
2022-11-01T11:26:17.121Z,19.67
2022-11-01T11:27:22.246Z,19.76
2022-11-01T11:29:53.698Z,20.05
2022-11-01T11:30:58.089Z,20.00
2022-11-01T11:32:00.197Z,20.08
2022-11-01T11:33:03.154Z,20.13
2022-11-01T11:35:33.789Z,20.38
2022-11-01T11:36:38.406Z,20.26
2022-11-01T11:37:40.534Z,20.40
2022-11-01T11:38:47.321Z,20.40
2022-11-01T11:40:01.608Z,20.43
2022-11-01T11:41:07.895Z,20.49
2022-11-01T11:42:18.722Z,20.54
2022-11-01T11:43:26.348Z,20.56
2022-11-01T11:46:07.998Z,20.75
2022-11-01T11:47:24.922Z,20.68
2022-11-01T11:48:27.668Z,20.70
2022-11-01T11:49:29.725Z,20.74
2022-11-01T11:50:32.246Z,20.78
2022-11-01T11:51:35.519Z,20.80
2022-11-01T11:52:38.696Z,20.84
2022-11-01T11:53:43.262Z,20.88
2022-11-01T11:54:45.917Z,20.90
2022-11-01T11:55:53.223Z,20.94
2022-11-01T11:57:09.592Z,20.97
2022-11-01T11:58:24.444Z,21.01
2022-11-01T11:59:29.408Z,21.04
2022-11-01T12:00:34.272Z,21.07
2022-11-01T12:01:36.941Z,21.09
2022-11-01T12:02:39.884Z,21.12
2022-11-01T12:03:47.799Z,21.13
2022-11-01T12:04:54.992Z,21.17
2022-11-01T12:06:02.879Z,21.18
2022-11-01T12:07:05.495Z,21.21
2022-11-01T12:08:11.335Z,21.23
2022-11-01T12:09:37.050Z,21.24
2022-11-01T12:10:39.997Z,21.27
2022-11-01T12:11:45.200Z,21.29
2022-11-01T12:12:50.308Z,21.31
2022-11-01T12:14:02.069Z,21.32
2022-11-01T12:15:08.960Z,21.34
2022-11-01T12:16:17.296Z,21.36
2022-11-01T12:18:51.660Z,21.48
2022-11-01T12:20:02.434Z,21.40
2022-11-01T12:21:04.672Z,21.30
2022-11-01T12:22:08.481Z,21.42
2022-11-01T12:23:16.881Z,21.42
2022-11-01T12:24:26.877Z,21.44
2022-11-01T12:25:29.932Z,21.45
2022-11-01T12:26:33.007Z,21.46
2022-11-01T12:27:35.316Z,21.48
2022-11-01T12:28:40.262Z,21.49
2022-11-01T12:29:45.786Z,21.49
2022-11-01T12:30:49.488Z,21.51
2022-11-01T12:31:52.244Z,21.52
2022-11-01T12:33:00.381Z,21.52
2022-11-01T12:35:30.259Z,21.66
2022-11-01T12:36:42.197Z,21.56
2022-11-01T12:38:15.604Z,21.57
2022-11-01T12:40:54.696Z,21.69
2022-11-01T12:41:57.826Z,21.57
2022-11-01T12:43:15.337Z,21.58
2022-11-01T12:44:36.191Z,21.57
2022-11-01T12:47:14.089Z,21.71
2022-11-01T12:49:40.723Z,21.72
2022-11-01T12:50:51.311Z,21.61
2022-11-01T12:51:55.430Z,21.62
2022-11-01T12:53:04.852Z,21.63
2022-11-01T12:54:20.252Z,21.64
2022-11-01T12:55:32.440Z,21.65
2022-11-01T12:56:35.666Z,21.67
2022-11-01T12:57:38.007Z,21.68
2022-11-01T12:58:42.035Z,21.69
2022-11-01T12:59:45.611Z,21.70
2022-11-01T13:01:04.647Z,21.67
2022-11-01T13:02:27.379Z,21.67
2022-11-01T13:03:51.782Z,21.73
2022-11-01T13:05:01.418Z,21.73
2022-11-01T13:06:27.528Z,21.74
2022-11-01T13:07:54.529Z,21.73
2022-11-01T13:09:07.138Z,21.74
2022-11-01T13:10:34.738Z,21.73
2022-11-01T13:12:00.315Z,21.73
2022-11-01T13:15:03.463Z,21.82
2022-11-01T13:17:54.453Z,21.81
2022-11-01T13:19:06.597Z,21.72
2022-11-01T13:20:43.688Z,21.71
2022-11-01T13:22:04.951Z,21.71
2022-11-01T13:23:39.702Z,21.71
2022-11-01T13:24:45.593Z,21.72
2022-11-01T13:25:51.068Z,21.72
2022-11-01T13:27:04.945Z,21.72
2022-11-01T13:29:51.985Z,21.82
2022-11-01T13:32:31.898Z,21.84
2022-11-01T13:35:08.415Z,21.86
2022-11-01T13:38:07.634Z,21.87
2022-11-01T13:39:16.764Z,21.79
2022-11-01T13:40:31.837Z,21.78
2022-11-01T13:43:05.434Z,21.92
2022-11-01T13:45:39.245Z,21.92
2022-11-01T13:47:11.102Z,21.82
2022-11-01T13:48:35.806Z,21.83
2022-11-01T13:49:44.988Z,21.85
2022-11-01T13:50:51.490Z,21.84
2022-11-01T13:52:09.014Z,21.85
2022-11-01T13:53:18.576Z,21.85
2022-11-01T13:54:44.183Z,21.86
2022-11-01T13:56:05.486Z,21.86
2022-11-01T13:57:10.723Z,21.87
2022-11-01T13:58:19.024Z,21.87
2022-11-01T13:59:34.093Z,21.86
2022-11-01T14:00:43.613Z,21.86
2022-11-01T14:01:45.918Z,21.87
2022-11-01T14:04:15.439Z,21.99
2022-11-01T14:05:17.938Z,21.89
2022-11-01T14:06:26.005Z,21.89
2022-11-01T14:08:47.314Z,22.03
2022-11-01T14:09:52.354Z,21.93
2022-11-01T14:10:54.685Z,21.95
2022-11-01T14:12:08.525Z,21.95
2022-11-01T14:13:16.513Z,21.97
2022-11-01T14:14:34.718Z,21.97
2022-11-01T14:17:23.286Z,22.10
2022-11-01T14:18:26.643Z,22.00
2022-11-01T14:19:29.454Z,21.99
2022-11-01T14:20:42.885Z,22.00
2022-11-01T14:21:46.215Z,21.99
2022-11-01T14:22:48.364Z,22.01
2022-11-01T14:23:52.530Z,22.01
2022-11-01T14:25:00.084Z,22.02
2022-11-01T14:26:23.052Z,22.03
2022-11-01T14:27:33.944Z,22.04
2022-11-01T14:28:44.487Z,22.04
2022-11-01T14:29:50.925Z,22.03
2022-11-01T14:30:55.132Z,22.04
2022-11-01T14:31:57.258Z,22.04
2022-11-01T14:33:00.519Z,22.04
2022-11-01T14:34:08.641Z,22.04
2022-11-01T14:35:14.804Z,22.06
2022-11-01T14:36:20.461Z,22.05
2022-11-01T14:37:23.271Z,22.07
2022-11-01T14:38:44.963Z,22.07
2022-11-01T14:40:02.386Z,22.07
2022-11-01T14:41:04.667Z,22.09
2022-11-01T19:36:46.893Z,19.08
2022-11-01T19:37:52.971Z,19.03
2022-11-01T19:38:55.267Z,19.16
2022-11-01T19:39:57.574Z,19.32
2022-11-01T19:40:59.988Z,19.47
2022-11-01T19:42:15.391Z,19.60
2022-11-01T19:43:22.887Z,19.77
2022-11-01T19:44:26.234Z,19.94
2022-11-01T19:45:31.965Z,20.10
2022-11-01T19:46:34.473Z,20.26
2022-11-01T19:47:40.723Z,20.41
2022-11-01T19:48:42.956Z,20.54
2022-11-01T19:49:45.105Z,20.69
2022-11-01T19:50:48.461Z,20.82
2022-11-01T19:52:03.999Z,20.92
2022-11-01T19:53:21.554Z,21.05
2022-11-01T19:54:23.864Z,21.18
2022-11-01T19:55:38.664Z,21.29
2022-11-01T19:56:41.025Z,21.39
2022-11-01T19:57:45.005Z,21.48
2022-11-01T19:58:53.868Z,21.57
2022-11-01T20:01:38.341Z,21.84
2022-11-01T20:02:42.232Z,21.79
2022-11-01T20:06:35.293Z,22.06
2022-11-01T20:07:38.322Z,21.98
2022-11-01T20:08:40.677Z,22.03
2022-11-01T20:09:42.907Z,22.06
2022-11-01T20:10:45.149Z,22.11
2022-11-01T20:11:48.411Z,22.14
2022-11-01T20:12:51.857Z,22.17
2022-11-01T20:13:54.195Z,22.21
2022-11-01T20:14:56.491Z,22.24
2022-11-01T20:15:59.515Z,22.27
2022-11-01T20:17:02.219Z,22.29
2022-11-01T20:18:05.046Z,22.31
2022-11-01T20:19:09.791Z,22.33
2022-11-01T20:20:13.109Z,22.33
2022-11-01T20:21:15.528Z,22.29
2022-11-01T20:22:18.360Z,22.29
2022-11-01T20:23:26.184Z,22.36
2022-11-01T20:24:25.490Z,22.38
2022-11-01T20:25:27.687Z,22.36
2022-11-01T20:26:31.425Z,22.37
2022-11-01T20:27:34.147Z,22.37
2022-11-01T20:28:36.374Z,22.37
2022-11-01T20:29:39.862Z,22.37
2022-11-01T20:30:42.110Z,22.31
2022-11-01T20:31:44.615Z,22.31
2022-11-01T20:32:47.752Z,22.37
2022-11-01T20:33:50.040Z,22.36
2022-11-01T20:34:53.276Z,22.36
2022-11-01T20:35:56.099Z,22.36
2022-11-01T20:38:03.443Z,22.39
2022-11-01T20:39:09.106Z,22.41
2022-11-01T20:40:11.566Z,22.42
2022-11-01T20:41:14.505Z,22.42
2022-11-01T20:42:17.272Z,22.43
2022-11-01T20:43:20.481Z,22.43
2022-11-01T20:44:22.624Z,22.42
2022-11-01T20:45:25.823Z,22.42
2022-11-01T20:46:28.970Z,22.43
2022-11-01T20:47:32.403Z,22.43
2022-11-01T20:48:34.833Z,22.45
2022-11-01T20:49:37.805Z,22.46
2022-11-01T20:50:40.159Z,22.47
2022-11-01T20:51:42.193Z,22.48
2022-11-01T20:52:44.594Z,22.49
2022-11-01T20:53:47.553Z,22.48
2022-11-01T20:54:50.838Z,22.49
2022-11-01T20:55:54.765Z,22.49
2022-11-01T20:57:00.146Z,22.50
2022-11-01T20:58:02.748Z,22.51
2022-11-01T20:59:05.360Z,22.50
2022-11-01T21:00:09.234Z,22.50
2022-11-01T21:01:17.824Z,22.52
2022-11-01T21:02:21.020Z,22.51
2022-11-01T21:03:27.320Z,22.52
2022-11-01T21:04:29.390Z,22.51
2022-11-01T21:05:31.498Z,22.50
2022-11-01T21:06:34.863Z,22.50
2022-11-01T21:07:43.668Z,22.49
2022-11-01T21:08:47.968Z,22.48
2022-11-01T21:09:51.463Z,22.48
2022-11-01T21:10:56.369Z,22.48
2022-11-01T21:11:58.778Z,22.48
2022-11-01T21:14:19.792Z,22.57
2022-11-01T21:15:38.349Z,22.47
2022-11-01T21:16:40.742Z,22.46
2022-11-01T21:17:43.063Z,22.45
2022-11-01T21:18:45.258Z,22.45
2022-11-01T21:21:17.085Z,22.53
2022-11-01T21:22:36.113Z,22.43
2022-11-01T21:23:38.183Z,22.42
2022-11-01T21:24:42.520Z,22.41
2022-11-01T21:25:44.906Z,22.40
2022-11-01T21:26:49.759Z,22.40
2022-11-01T21:27:52.617Z,22.40
2022-11-01T21:30:15.612Z,22.52
2022-11-01T21:31:29.898Z,22.41
2022-11-01T21:32:34.896Z,22.41
2022-11-01T21:33:38.927Z,22.40
2022-11-01T21:34:41.187Z,22.40
2022-11-01T21:35:44.058Z,22.39
2022-11-01T21:36:47.132Z,22.40
2022-11-01T21:37:54.189Z,22.39
2022-11-01T21:40:05.965Z,22.38
2022-11-01T21:42:48.123Z,22.49
2022-11-01T21:43:52.466Z,22.39
2022-11-01T21:44:55.453Z,22.38
2022-11-01T21:45:58.373Z,22.38
2022-11-01T21:47:20.650Z,22.37
2022-11-01T21:49:39.004Z,22.45
2022-11-01T21:50:42.219Z,22.36
2022-11-01T21:51:44.258Z,22.35
2022-11-01T21:52:46.372Z,22.33
2022-11-01T21:53:48.371Z,22.33
2022-11-01T21:54:50.471Z,22.33
2022-11-01T21:55:52.699Z,22.33
2022-11-01T21:56:55.646Z,22.33
2022-11-01T21:58:00.711Z,22.31
2022-11-01T21:59:03.009Z,22.32
2022-11-01T22:00:06.406Z,22.31
2022-11-01T22:01:08.792Z,22.31
2022-11-01T22:02:12.563Z,22.30
2022-11-01T22:03:15.267Z,22.30
2022-11-01T22:04:18.444Z,22.31
2022-11-01T22:05:21.550Z,22.30
2022-11-01T22:06:23.811Z,22.30
2022-11-01T22:07:26.200Z,22.29
2022-11-01T22:08:28.829Z,22.30
2022-11-01T22:09:32.591Z,22.29
2022-11-01T22:10:36.735Z,22.29
2022-11-01T22:11:41.271Z,22.28
2022-11-01T22:12:43.616Z,22.30
2022-11-01T22:13:45.743Z,22.29
2022-11-01T22:14:48.066Z,22.29
2022-11-01T22:15:50.180Z,22.30
2022-11-01T22:16:52.402Z,22.31
2022-11-01T22:17:54.530Z,22.31
2022-11-01T22:18:56.548Z,22.31
2022-11-01T22:19:59.839Z,22.31
2022-11-01T22:21:02.160Z,22.31
2022-11-01T22:22:05.537Z,22.32
2022-11-01T22:23:08.724Z,22.32
2022-11-01T22:24:10.783Z,22.33
2022-11-01T22:25:13.124Z,22.33
2022-11-01T22:26:15.830Z,22.33
2022-11-01T22:27:17.835Z,22.35
2022-11-01T22:28:20.623Z,22.34
2022-11-01T22:29:23.090Z,22.36
2022-11-01T22:30:25.210Z,22.37
2022-11-01T22:31:27.313Z,22.37
2022-11-01T22:32:30.064Z,22.39
2022-11-01T22:33:32.961Z,22.40
2022-11-01T22:34:35.129Z,22.41
2022-11-01T22:35:37.245Z,22.42
2022-11-01T22:36:39.862Z,22.42
2022-11-01T22:37:42.072Z,22.42
2022-11-01T22:38:45.058Z,22.42
2022-11-01T22:39:52.025Z,22.42
2022-11-01T22:41:58.216Z,22.42
2022-11-01T22:43:00.670Z,22.43
2022-11-01T22:44:14.557Z,22.41
2022-11-01T22:46:30.137Z,22.51
2022-11-01T22:47:33.154Z,22.37
2022-11-01T22:48:35.332Z,22.37
2022-11-01T22:49:44.683Z,22.41
2022-11-01T22:50:47.656Z,22.40
2022-11-01T22:51:52.174Z,22.40
2022-11-01T22:52:54.756Z,22.41
2022-11-01T22:53:57.587Z,22.40
2022-11-01T22:55:03.038Z,22.40
2022-11-01T22:56:07.735Z,22.40
2022-11-01T22:57:13.736Z,22.41
2022-11-01T22:59:50.669Z,22.49
2022-11-01T23:00:54.846Z,22.39
2022-11-01T23:02:07.226Z,22.39
2022-11-01T23:03:28.225Z,22.39
2022-11-01T23:04:30.279Z,22.38
2022-11-01T23:05:32.434Z,22.38
2022-11-01T23:06:34.635Z,22.38
2022-11-01T23:07:48.800Z,22.36
2022-11-01T23:08:51.045Z,22.38
2022-11-01T23:09:53.069Z,22.39
2022-11-01T23:10:55.762Z,22.39
2022-11-01T23:11:57.763Z,22.40
2022-11-01T23:13:16.014Z,22.41
2022-11-01T23:14:21.050Z,22.41
2022-11-01T23:15:26.892Z,22.42
2022-11-01T23:16:37.283Z,22.42
2022-11-01T23:17:39.472Z,22.43
2022-11-01T23:18:42.293Z,22.43
2022-11-01T23:19:44.618Z,22.43
2022-11-01T23:22:12.093Z,22.42
2022-11-01T23:23:17.072Z,22.42
2022-11-01T23:24:20.329Z,22.42
2022-11-01T23:25:22.535Z,22.43
2022-11-01T23:26:24.849Z,22.42
2022-11-01T23:27:28.061Z,22.43
2022-11-01T23:28:30.319Z,22.44
2022-11-01T23:29:32.429Z,22.44
2022-11-01T23:30:34.934Z,22.43
2022-11-01T23:31:37.044Z,22.43
2022-11-01T23:32:39.181Z,22.42
2022-11-01T23:35:08.075Z,22.54
2022-11-01T23:37:28.929Z,22.54
2022-11-01T23:38:34.356Z,22.46
2022-11-01T23:39:36.503Z,22.45
2022-11-01T23:40:39.690Z,22.45
2022-11-01T23:41:46.256Z,22.46
2022-11-01T23:42:48.408Z,22.46
2022-11-01T23:43:51.423Z,22.46
2022-11-01T23:44:54.981Z,22.46
2022-11-01T23:45:57.136Z,22.45
2022-11-01T23:49:34.014Z,22.56
2022-11-01T23:50:36.159Z,22.46
2022-11-01T23:51:38.219Z,22.44
2022-11-01T23:52:45.457Z,22.44
2022-11-01T23:53:49.611Z,22.44
2022-11-01T23:54:51.666Z,22.44
2022-11-01T23:55:53.779Z,22.44
2022-11-01T23:56:56.077Z,22.44
2022-11-01T23:57:59.982Z,22.44
2022-11-01T23:59:03.982Z,22.44
